sensor_id;sensor_type;location;lat;lon;timestamp;pressure;altitude;pressure_sealevel;temperature;humidity
41636;BME280;27623;51.966;4.602;2023-04-19T00:00:59;64272.81;;;11.12;76.62
41636;BME280;27623;51.966;4.602;2023-04-19T00:03:26;64277.97;;;10.98;76.92
41636;BME280;27623;51.966;4.602;2023-04-19T00:05:52;64297.59;;;11.09;76.58
41636;BME280;27623;51.966;4.602;2023-04-19T00:08:18;64252.66;;;11.00;76.94
41636;BME280;27623;51.966;4.602;2023-04-19T00:10:44;64230.56;;;11.06;76.52
41636;BME280;27623;51.966;4.602;2023-04-19T00:13:09;64243.53;;;11.01;77.05
41636;BME280;27623;51.966;4.602;2023-04-19T00:15:34;64232.84;;;10.94;77.19
41636;BME280;27623;51.966;4.602;2023-04-19T00:18:00;64254.50;;;10.90;77.31
41636;BME280;27623;51.966;4.602;2023-04-19T00:20:25;64259.06;;;10.90;78.05
41636;BME280;27623;51.966;4.602;2023-04-19T00:22:51;64235.22;;;10.91;77.61
41636;BME280;27623;51.966;4.602;2023-04-19T00:25:19;64289.66;;;10.90;78.39
41636;BME280;27623;51.966;4.602;2023-04-19T00:27:44;64257.06;;;10.90;77.86
41636;BME280;27623;51.966;4.602;2023-04-19T00:30:10;64263.13;;;10.75;78.61
41636;BME280;27623;51.966;4.602;2023-04-19T00:32:38;64249.50;;;10.69;79.40
41636;BME280;27623;51.966;4.602;2023-04-19T00:35:04;64284.06;;;10.68;78.73
41636;BME280;27623;51.966;4.602;2023-04-19T00:37:29;64254.53;;;10.83;78.55
41636;BME280;27623;51.966;4.602;2023-04-19T00:39:55;64251.47;;;10.76;78.98
41636;BME280;27623;51.966;4.602;2023-04-19T00:42:20;64261.13;;;10.75;79.34
41636;BME280;27623;51.966;4.602;2023-04-19T00:44:46;64259.66;;;10.76;79.18
41636;BME280;27623;51.966;4.602;2023-04-19T00:47:12;64239.66;;;10.74;79.24
41636;BME280;27623;51.966;4.602;2023-04-19T00:49:38;64267.81;;;10.91;79.03
41636;BME280;27623;51.966;4.602;2023-04-19T00:52:04;64249.06;;;10.85;79.05
41636;BME280;27623;51.966;4.602;2023-04-19T00:54:32;64268.53;;;10.87;79.54
41636;BME280;27623;51.966;4.602;2023-04-19T00:56:57;64261.31;;;10.78;79.67
41636;BME280;27623;51.966;4.602;2023-04-19T00:59:23;64261.81;;;10.85;80.18
41636;BME280;27623;51.966;4.602;2023-04-19T01:01:49;64288.75;;;10.91;79.90
41636;BME280;27623;51.966;4.602;2023-04-19T01:04:15;64243.78;;;10.90;80.35
41636;BME280;27623;51.966;4.602;2023-04-19T01:06:40;64269.09;;;10.87;81.50
41636;BME280;27623;51.966;4.602;2023-04-19T01:09:06;64233.09;;;10.75;82.05
41636;BME280;27623;51.966;4.602;2023-04-19T01:11:31;64284.94;;;10.88;81.95
41636;BME280;27623;51.966;4.602;2023-04-19T01:13:57;64229.63;;;10.77;82.84
41636;BME280;27623;51.966;4.602;2023-04-19T01:16:25;64253.22;;;10.94;82.80
41636;BME280;27623;51.966;4.602;2023-04-19T01:18:51;64267.00;;;11.09;82.42
41636;BME280;27623;51.966;4.602;2023-04-19T01:21:16;64268.88;;;10.99;82.95
41636;BME280;27623;51.966;4.602;2023-04-19T01:23:42;64274.91;;;10.90;83.51
41636;BME280;27623;51.966;4.602;2023-04-19T01:26:08;64269.91;;;11.07;83.49
41636;BME280;27623;51.966;4.602;2023-04-19T01:28:33;64274.28;;;11.04;83.89
41636;BME280;27623;51.966;4.602;2023-04-19T01:31:01;64301.22;;;11.10;83.94
41636;BME280;27623;51.966;4.602;2023-04-19T01:33:26;64290.81;;;11.22;83.68
41636;BME280;27623;51.966;4.602;2023-04-19T01:35:52;64293.22;;;11.12;84.30
41636;BME280;27623;51.966;4.602;2023-04-19T01:38:20;64301.78;;;11.11;84.30
41636;BME280;27623;51.966;4.602;2023-04-19T01:40:45;64293.56;;;11.17;84.66
41636;BME280;27623;51.966;4.602;2023-04-19T01:43:16;64284.66;;;11.14;85.08
41636;BME280;27623;51.966;4.602;2023-04-19T01:45:41;64288.28;;;11.22;84.94
41636;BME280;27623;51.966;4.602;2023-04-19T01:48:09;64318.09;;;11.33;84.27
41636;BME280;27623;51.966;4.602;2023-04-19T01:50:34;64261.50;;;11.18;84.54
41636;BME280;27623;51.966;4.602;2023-04-19T01:53:00;64328.69;;;11.24;84.77
41636;BME280;27623;51.966;4.602;2023-04-19T01:55:25;64296.44;;;11.22;84.66
41636;BME280;27623;51.966;4.602;2023-04-19T01:57:51;64280.44;;;11.19;84.91
41636;BME280;27623;51.966;4.602;2023-04-19T02:00:20;64303.56;;;11.22;84.91
41636;BME280;27623;51.966;4.602;2023-04-19T02:02:45;64317.81;;;11.14;84.79
41636;BME280;27623;51.966;4.602;2023-04-19T02:05:11;64298.28;;;11.19;84.62
41636;BME280;27623;51.966;4.602;2023-04-19T02:07:37;64306.13;;;11.22;84.05
41636;BME280;27623;51.966;4.602;2023-04-19T02:10:03;64299.50;;;11.30;82.96
41636;BME280;27623;51.966;4.602;2023-04-19T02:12:30;64315.53;;;11.33;82.94
41636;BME280;27623;51.966;4.602;2023-04-19T02:14:56;64273.38;;;11.06;84.44
41636;BME280;27623;51.966;4.602;2023-04-19T02:17:25;64278.53;;;10.91;84.10
41636;BME280;27623;51.966;4.602;2023-04-19T02:19:51;64267.25;;;10.90;84.48
41636;BME280;27623;51.966;4.602;2023-04-19T02:22:17;64255.03;;;10.98;84.11
41636;BME280;27623;51.966;4.602;2023-04-19T02:24:42;64257.09;;;10.83;84.03
41636;BME280;27623;51.966;4.602;2023-04-19T02:27:08;64262.25;;;11.07;83.58
41636;BME280;27623;51.966;4.602;2023-04-19T02:29:33;64301.09;;;11.00;83.76
41636;BME280;27623;51.966;4.602;2023-04-19T02:32:01;64293.44;;;11.00;83.73
41636;BME280;27623;51.966;4.602;2023-04-19T02:34:32;64282.53;;;10.97;83.57
41636;BME280;27623;51.966;4.602;2023-04-19T02:36:58;64267.06;;;10.95;83.41
41636;BME280;27623;51.966;4.602;2023-04-19T02:39:23;64297.25;;;11.04;83.59
41636;BME280;27623;51.966;4.602;2023-04-19T02:41:49;64281.25;;;11.01;83.58
41636;BME280;27623;51.966;4.602;2023-04-19T02:44:14;64250.75;;;10.80;84.52
41636;BME280;27623;51.966;4.602;2023-04-19T02:46:40;64257.78;;;10.93;83.87
41636;BME280;27623;51.966;4.602;2023-04-19T02:49:05;64280.34;;;10.95;83.85
41636;BME280;27623;51.966;4.602;2023-04-19T02:51:31;64277.59;;;11.00;84.00
41636;BME280;27623;51.966;4.602;2023-04-19T02:53:56;64266.00;;;10.87;84.34
41636;BME280;27623;51.966;4.602;2023-04-19T02:56:21;64248.16;;;10.87;84.87
41636;BME280;27623;51.966;4.602;2023-04-19T02:58:47;64279.47;;;10.83;84.55
41636;BME280;27623;51.966;4.602;2023-04-19T03:01:12;64279.47;;;10.83;85.31
41636;BME280;27623;51.966;4.602;2023-04-19T03:03:40;64229.38;;;10.88;85.24
41636;BME280;27623;51.966;4.602;2023-04-19T03:06:05;64242.88;;;10.84;85.54
41636;BME280;27623;51.966;4.602;2023-04-19T03:08:31;64272.56;;;10.86;86.11
41636;BME280;27623;51.966;4.602;2023-04-19T03:10:57;64242.84;;;10.91;85.90
41636;BME280;27623;51.966;4.602;2023-04-19T03:13:22;64256.88;;;10.88;86.25
41636;BME280;27623;51.966;4.602;2023-04-19T03:15:47;64270.91;;;10.91;86.39
41636;BME280;27623;51.966;4.602;2023-04-19T03:18:13;64256.16;;;10.85;86.22
41636;BME280;27623;51.966;4.602;2023-04-19T03:20:38;64235.41;;;10.87;86.74
41636;BME280;27623;51.966;4.602;2023-04-19T03:23:04;64268.72;;;10.89;86.44
41636;BME280;27623;51.966;4.602;2023-04-19T03:25:29;64299.84;;;10.97;86.21
41636;BME280;27623;51.966;4.602;2023-04-19T03:27:55;64246.88;;;10.90;86.64
41636;BME280;27623;51.966;4.602;2023-04-19T03:30:20;64258.53;;;10.89;86.57
41636;BME280;27623;51.966;4.602;2023-04-19T03:32:48;64301.84;;;10.96;86.46
41636;BME280;27623;51.966;4.602;2023-04-19T03:35:13;64261.22;;;10.99;85.98
41636;BME280;27623;51.966;4.602;2023-04-19T03:37:39;64287.94;;;11.10;85.66
41636;BME280;27623;51.966;4.602;2023-04-19T03:40:05;64294.88;;;11.07;86.01
41636;BME280;27623;51.966;4.602;2023-04-19T03:42:31;64303.44;;;11.05;85.78
41636;BME280;27623;51.966;4.602;2023-04-19T03:44:56;64313.06;;;11.19;85.32
41636;BME280;27623;51.966;4.602;2023-04-19T03:47:21;64296.88;;;11.06;85.83
41636;BME280;27623;51.966;4.602;2023-04-19T03:49:49;64250.47;;;10.98;86.66
41636;BME280;27623;51.966;4.602;2023-04-19T03:52:15;64287.09;;;10.97;86.44
41636;BME280;27623;51.966;4.602;2023-04-19T03:54:40;64256.81;;;11.02;86.29
41636;BME280;27623;51.966;4.602;2023-04-19T03:57:06;64279.44;;;10.97;86.20
41636;BME280;27623;51.966;4.602;2023-04-19T03:59:34;64263.59;;;10.96;86.21
41636;BME280;27623;51.966;4.602;2023-04-19T04:02:02;64261.97;;;10.88;86.63
41636;BME280;27623;51.966;4.602;2023-04-19T04:04:28;64266.91;;;10.85;87.36
41636;BME280;27623;51.966;4.602;2023-04-19T04:06:55;64215.56;;;10.87;87.74
41636;BME280;27623;51.966;4.602;2023-04-19T04:09:21;64282.56;;;10.90;87.00
41636;BME280;27623;51.966;4.602;2023-04-19T04:11:46;64274.34;;;10.97;86.95
41636;BME280;27623;51.966;4.602;2023-04-19T04:14:11;64261.97;;;10.95;86.78
41636;BME280;27623;51.966;4.602;2023-04-19T04:16:39;64300.69;;;11.10;86.20
41636;BME280;27623;51.966;4.602;2023-04-19T04:19:05;64307.06;;;11.06;86.29
41636;BME280;27623;51.966;4.602;2023-04-19T04:21:30;64268.50;;;11.01;86.43
41636;BME280;27623;51.966;4.602;2023-04-19T04:23:56;64258.88;;;10.94;86.74
41636;BME280;27623;51.966;4.602;2023-04-19T04:26:21;64271.25;;;10.96;86.66
41636;BME280;27623;51.966;4.602;2023-04-19T04:28:49;64252.69;;;10.86;86.80
41636;BME280;27623;51.966;4.602;2023-04-19T04:31:14;64241.97;;;10.86;87.25
41636;BME280;27623;51.966;4.602;2023-04-19T04:33:44;64273.06;;;10.93;86.89
41636;BME280;27623;51.966;4.602;2023-04-19T04:36:12;64248.16;;;10.87;86.97
41636;BME280;27623;51.966;4.602;2023-04-19T04:38:37;64270.19;;;10.81;87.28
41636;BME280;27623;51.966;4.602;2023-04-19T04:41:03;64270.19;;;10.81;87.08
41636;BME280;27623;51.966;4.602;2023-04-19T04:43:28;64275.28;;;10.81;86.90
41636;BME280;27623;51.966;4.602;2023-04-19T04:45:54;64252.34;;;10.88;87.14
41636;BME280;27623;51.966;4.602;2023-04-19T04:48:21;64269.81;;;10.83;86.47
41636;BME280;27623;51.966;4.602;2023-04-19T04:50:47;64281.84;;;10.87;86.19
41636;BME280;27623;51.966;4.602;2023-04-19T04:53:12;64241.41;;;10.85;86.25
41636;BME280;27623;51.966;4.602;2023-04-19T04:55:37;64286.75;;;10.85;86.44
41636;BME280;27623;51.966;4.602;2023-04-19T04:58:03;64239.03;;;10.95;86.58
41636;BME280;27623;51.966;4.602;2023-04-19T05:00:31;64250.88;;;10.89;86.53
41636;BME280;27623;51.966;4.602;2023-04-19T05:02:57;64233.44;;;10.80;86.64
41636;BME280;27623;51.966;4.602;2023-04-19T05:05:23;64277.47;;;10.83;87.52
41636;BME280;27623;51.966;4.602;2023-04-19T05:07:50;64278.19;;;10.86;86.84
41636;BME280;27623;51.966;4.602;2023-04-19T05:10:16;64305.09;;;10.99;86.20
41636;BME280;27623;51.966;4.602;2023-04-19T05:12:41;64275.81;;;10.96;86.65
41636;BME280;27623;51.966;4.602;2023-04-19T05:15:09;64261.78;;;10.92;86.01
41636;BME280;27623;51.966;4.602;2023-04-19T05:17:36;64308.94;;;10.96;86.16
41636;BME280;27623;51.966;4.602;2023-04-19T05:20:01;64240.28;;;10.98;85.52
41636;BME280;27623;51.966;4.602;2023-04-19T05:22:26;64285.09;;;10.97;85.13
41636;BME280;27623;51.966;4.602;2023-04-19T05:24:52;64277.41;;;11.05;84.57
41636;BME280;27623;51.966;4.602;2023-04-19T05:27:17;64304.69;;;11.16;84.00
41636;BME280;27623;51.966;4.602;2023-04-19T05:29:43;64338.47;;;11.40;82.90
41636;BME280;27623;51.966;4.602;2023-04-19T05:32:08;64349.00;;;11.52;81.47
41636;BME280;27623;51.966;4.602;2023-04-19T05:34:35;64369.38;;;11.59;80.43
41636;BME280;27623;51.966;4.602;2023-04-19T05:37:04;64296.53;;;11.46;80.49
41636;BME280;27623;51.966;4.602;2023-04-19T05:39:29;64366.91;;;11.38;80.90
41636;BME280;27623;51.966;4.602;2023-04-19T05:41:58;64329.94;;;11.27;80.62
41636;BME280;27623;51.966;4.602;2023-04-19T05:44:24;64331.97;;;11.27;81.00
41636;BME280;27623;51.966;4.602;2023-04-19T05:46:49;64306.31;;;11.17;81.30
41636;BME280;27623;51.966;4.602;2023-04-19T05:49:15;64276.66;;;11.01;81.93
41636;BME280;27623;51.966;4.602;2023-04-19T05:51:40;64278.91;;;10.96;81.35
41636;BME280;27623;51.966;4.602;2023-04-19T05:54:05;64299.84;;;10.97;81.37
41636;BME280;27623;51.966;4.602;2023-04-19T05:56:31;64273.06;;;10.93;81.95
41636;BME280;27623;51.966;4.602;2023-04-19T05:58:56;64272.91;;;10.91;81.31
41636;BME280;27623;51.966;4.602;2023-04-19T06:01:23;64287.28;;;10.92;81.49
41636;BME280;27623;51.966;4.602;2023-04-19T06:03:50;64259.75;;;11.00;81.33
41636;BME280;27623;51.966;4.602;2023-04-19T06:06:20;64268.34;;;10.91;81.13
41636;BME280;27623;51.966;4.602;2023-04-19T06:08:46;64287.81;;;11.00;80.95
41636;BME280;27623;51.966;4.602;2023-04-19T06:11:11;64294.03;;;10.87;81.79
41636;BME280;27623;51.966;4.602;2023-04-19T06:13:37;64259.97;;;10.95;81.05
41636;BME280;27623;51.966;4.602;2023-04-19T06:16:05;64271.47;;;10.85;80.95
41636;BME280;27623;51.966;4.602;2023-04-19T06:18:32;64244.50;;;10.86;81.18
41636;BME280;27623;51.966;4.602;2023-04-19T06:20:57;64275.63;;;10.93;81.15
41636;BME280;27623;51.966;4.602;2023-04-19T06:23:22;64254.13;;;10.99;81.15
41636;BME280;27623;51.966;4.602;2023-04-19T06:25:48;64280.16;;;11.00;80.63
41636;BME280;27623;51.966;4.602;2023-04-19T06:28:13;64285.09;;;10.97;80.01
41636;BME280;27623;51.966;4.602;2023-04-19T06:30:39;64271.97;;;10.92;78.32
41636;BME280;27623;51.966;4.602;2023-04-19T06:33:04;64275.28;;;10.81;78.46
41636;BME280;27623;51.966;4.602;2023-04-19T06:35:32;64269.50;;;10.78;77.73
41636;BME280;27623;51.966;4.602;2023-04-19T06:37:58;64269.25;;;10.90;78.79
41636;BME280;27623;51.966;4.602;2023-04-19T06:40:25;64278.53;;;10.98;78.08
41636;BME280;27623;51.966;4.602;2023-04-19T06:42:50;64276.53;;;10.99;77.28
41636;BME280;27623;51.966;4.602;2023-04-19T06:45:15;64300.16;;;11.02;77.69
41636;BME280;27623;51.966;4.602;2023-04-19T06:47:41;64317.66;;;11.04;76.87
41636;BME280;27623;51.966;4.602;2023-04-19T06:50:06;64298.56;;;11.00;76.45
41636;BME280;27623;51.966;4.602;2023-04-19T06:52:32;64274.66;;;11.09;76.18
41636;BME280;27623;51.966;4.602;2023-04-19T06:54:57;64308.31;;;11.17;75.22
41636;BME280;27623;51.966;4.602;2023-04-19T06:57:23;64307.44;;;11.11;74.19
41636;BME280;27623;51.966;4.602;2023-04-19T06:59:48;64306.13;;;11.15;74.30
41636;BME280;27623;51.966;4.602;2023-04-19T07:02:13;64284.66;;;11.07;72.77
41636;BME280;27623;51.966;4.602;2023-04-19T07:04:39;64287.56;;;11.12;71.77
41636;BME280;27623;51.966;4.602;2023-04-19T07:07:04;64274.47;;;11.07;71.86
41636;BME280;27623;51.966;4.602;2023-04-19T07:09:30;64294.09;;;11.18;72.75
41636;BME280;27623;51.966;4.602;2023-04-19T07:11:57;64336.50;;;11.26;73.07
41636;BME280;27623;51.966;4.602;2023-04-19T07:14:23;64333.75;;;11.31;73.43
41636;BME280;27623;51.966;4.602;2023-04-19T07:16:48;64307.16;;;11.37;73.96
41636;BME280;27623;51.966;4.602;2023-04-19T07:19:14;64326.41;;;11.43;73.58
41636;BME280;27623;51.966;4.602;2023-04-19T07:21:40;64312.06;;;11.42;72.95
41636;BME280;27623;51.966;4.602;2023-04-19T07:24:06;64346.84;;;11.43;72.21
41636;BME280;27623;51.966;4.602;2023-04-19T07:26:32;64332.59;;;11.51;72.14
41636;BME280;27623;51.966;4.602;2023-04-19T07:28:58;64338.97;;;11.55;71.88
41636;BME280;27623;51.966;4.602;2023-04-19T07:31:27;64315.44;;;11.54;71.03
41636;BME280;27623;51.966;4.602;2023-04-19T07:33:52;64355.53;;;11.58;70.24
41636;BME280;27623;51.966;4.602;2023-04-19T07:36:18;64348.59;;;11.61;69.25
41636;BME280;27623;51.966;4.602;2023-04-19T07:38:43;64337.63;;;11.65;68.75
41636;BME280;27623;51.966;4.602;2023-04-19T07:41:09;64362.78;;;11.67;68.94
41636;BME280;27623;51.966;4.602;2023-04-19T07:43:35;64354.56;;;11.74;68.05
41636;BME280;27623;51.966;4.602;2023-04-19T07:46:00;64393.22;;;11.79;68.83
41636;BME280;27623;51.966;4.602;2023-04-19T07:48:26;64393.34;;;11.89;68.69
41636;BME280;27623;51.966;4.602;2023-04-19T07:50:51;64417.78;;;11.95;68.14
41636;BME280;27623;51.966;4.602;2023-04-19T07:53:17;64384.91;;;12.00;66.56
41636;BME280;27623;51.966;4.602;2023-04-19T07:55:42;64382.72;;;12.05;67.20
41636;BME280;27623;51.966;4.602;2023-04-19T07:58:08;64378.13;;;12.05;66.78
41636;BME280;27623;51.966;4.602;2023-04-19T08:00:33;64431.91;;;12.15;66.71
41636;BME280;27623;51.966;4.602;2023-04-19T08:03:01;64423.34;;;12.17;64.10
41636;BME280;27623;51.966;4.602;2023-04-19T08:05:26;64402.88;;;12.24;64.33
41636;BME280;27623;51.966;4.602;2023-04-19T08:07:52;64417.81;;;12.26;64.23
41636;BME280;27623;51.966;4.602;2023-04-19T08:10:18;64469.06;;;12.35;64.32
41636;BME280;27623;51.966;4.602;2023-04-19T08:12:44;64437.41;;;12.51;63.60
41636;BME280;27623;51.966;4.602;2023-04-19T08:15:10;64438.16;;;12.47;61.99
41636;BME280;27623;51.966;4.602;2023-04-19T08:17:35;64443.41;;;12.57;63.71
41636;BME280;27623;51.966;4.602;2023-04-19T08:20:01;64478.78;;;12.66;62.74
41636;BME280;27623;51.966;4.602;2023-04-19T08:22:26;64512.91;;;12.71;61.38
41636;BME280;27623;51.966;4.602;2023-04-19T08:24:54;64516.09;;;12.89;62.61
41636;BME280;27623;51.966;4.602;2023-04-19T08:27:22;64512.78;;;13.00;61.81
41636;BME280;27623;51.966;4.602;2023-04-19T08:29:49;64504.88;;;13.04;60.86
41636;BME280;27623;51.966;4.602;2023-04-19T08:32:14;64535.91;;;13.09;59.37
41636;BME280;27623;51.966;4.602;2023-04-19T08:34:40;64560.75;;;13.14;56.41
41636;BME280;27623;51.966;4.602;2023-04-19T08:37:06;64524.94;;;13.21;56.27
41636;BME280;27623;51.966;4.602;2023-04-19T08:39:34;64578.78;;;13.30;56.15
41636;BME280;27623;51.966;4.602;2023-04-19T08:42:04;64564.66;;;13.41;56.07
41636;BME280;27623;51.966;4.602;2023-04-19T08:44:30;64588.38;;;13.51;55.36
41636;BME280;27623;51.966;4.602;2023-04-19T08:46:57;64606.44;;;13.61;54.34
41636;BME280;27623;51.966;4.602;2023-04-19T08:49:23;64568.75;;;13.64;53.89
41636;BME280;27623;51.966;4.602;2023-04-19T08:51:49;64594.47;;;13.73;54.16
41636;BME280;27623;51.966;4.602;2023-04-19T08:54:15;64601.41;;;13.77;54.35
41636;BME280;27623;51.966;4.602;2023-04-19T08:56:41;64653.88;;;13.88;54.38
41636;BME280;27623;51.966;4.602;2023-04-19T08:59:07;64643.53;;;14.02;52.16
41636;BME280;27623;51.966;4.602;2023-04-19T09:01:32;64656.69;;;14.07;52.89
41636;BME280;27623;51.966;4.602;2023-04-19T09:03:57;64643.69;;;14.12;51.00
41636;BME280;27623;51.966;4.602;2023-04-19T09:06:23;64647.34;;;14.13;49.69
41636;BME280;27623;51.966;4.602;2023-04-19T09:08:48;64673.66;;;14.16;51.98
41636;BME280;27623;51.966;4.602;2023-04-19T09:11:16;64666.28;;;14.28;52.21
41636;BME280;27623;51.966;4.602;2023-04-19T09:13:42;64689.84;;;14.36;52.90
41636;BME280;27623;51.966;4.602;2023-04-19T09:16:24;64675.56;;;14.37;50.64
41636;BME280;27623;51.966;4.602;2023-04-19T09:18:53;64691.34;;;14.66;48.79
41636;BME280;27623;51.966;4.602;2023-04-19T09:21:30;64736.00;;;14.74;49.81
41636;BME280;27623;51.966;4.602;2023-04-19T09:23:56;64738.34;;;14.78;47.61
41636;BME280;27623;51.966;4.602;2023-04-19T09:26:21;64741.97;;;14.87;48.04
41636;BME280;27623;51.966;4.602;2023-04-19T09:29:04;64707.53;;;14.86;47.79
41636;BME280;27623;51.966;4.602;2023-04-19T09:31:36;64752.13;;;15.01;46.79
41636;BME280;27623;51.966;4.602;2023-04-19T09:34:15;64753.78;;;15.02;45.23
41636;BME280;27623;51.966;4.602;2023-04-19T09:36:41;64760.34;;;15.08;46.62
41636;BME280;27623;51.966;4.602;2023-04-19T09:39:06;64789.22;;;15.26;46.80
41636;BME280;27623;51.966;4.602;2023-04-19T09:41:32;64769.56;;;15.31;45.54
41636;BME280;27623;51.966;4.602;2023-04-19T09:44:10;64789.72;;;15.33;44.32
41636;BME280;27623;51.966;4.602;2023-04-19T09:46:40;64783.75;;;15.44;43.30
41636;BME280;27623;51.966;4.602;2023-04-19T09:51:46;64805.94;;;15.46;40.98
41636;BME280;27623;51.966;4.602;2023-04-19T09:54:14;64822.78;;;15.52;39.08
41636;BME280;27623;51.966;4.602;2023-04-19T09:56:40;64813.91;;;15.65;40.72
41636;BME280;27623;51.966;4.602;2023-04-19T09:59:06;64835.34;;;15.71;40.40
41636;BME280;27623;51.966;4.602;2023-04-19T10:01:44;64837.53;;;15.73;39.90
41636;BME280;27623;51.966;4.602;2023-04-19T10:04:11;64851.88;;;15.96;39.38
41636;BME280;27623;51.966;4.602;2023-04-19T10:06:40;64854.38;;;16.03;38.00
41636;BME280;27623;51.966;4.602;2023-04-19T10:09:06;64868.72;;;16.02;37.17
41636;BME280;27623;51.966;4.602;2023-04-19T10:11:36;64848.47;;;15.83;35.35
41636;BME280;27623;51.966;4.602;2023-04-19T10:14:09;64893.34;;;16.01;37.48
41636;BME280;27623;51.966;4.602;2023-04-19T10:16:36;64882.22;;;16.19;37.96
41636;BME280;27623;51.966;4.602;2023-04-19T10:19:06;64905.63;;;16.31;38.94
41636;BME280;27623;51.966;4.602;2023-04-19T10:21:32;64935.63;;;16.49;38.03
41636;BME280;27623;51.966;4.602;2023-04-19T10:23:59;64931.69;;;16.60;36.22
41636;BME280;27623;51.966;4.602;2023-04-19T10:26:27;64954.69;;;16.58;34.90
41636;BME280;27623;51.966;4.602;2023-04-19T10:28:54;64974.22;;;16.80;35.91
41636;BME280;27623;51.966;4.602;2023-04-19T10:31:21;64978.91;;;16.90;35.84
41636;BME280;27623;51.966;4.602;2023-04-19T10:33:48;65004.22;;;16.99;34.86
41636;BME280;27623;51.966;4.602;2023-04-19T10:36:14;65004.66;;;17.13;33.58
41636;BME280;27623;51.966;4.602;2023-04-19T10:38:49;64992.00;;;17.09;33.87
41636;BME280;27623;51.966;4.602;2023-04-19T10:41:19;65034.53;;;17.29;35.65
41636;BME280;27623;51.966;4.602;2023-04-19T10:49:04;65044.84;;;17.53;33.27
41636;BME280;27623;51.966;4.602;2023-04-19T10:51:35;65079.63;;;17.80;34.95
41636;BME280;27623;51.966;4.602;2023-04-19T11:09:22;65144.09;;;18.28;31.59
41636;BME280;27623;51.966;4.602;2023-04-19T11:11:48;65117.38;;;18.06;31.81
41636;BME280;27623;51.966;4.602;2023-04-19T11:14:14;65162.53;;;18.26;31.95
41636;BME280;27623;51.966;4.602;2023-04-19T11:16:41;65169.84;;;18.52;32.00
41636;BME280;27623;51.966;4.602;2023-04-19T11:19:06;65238.19;;;18.86;34.11
41636;BME280;27623;51.966;4.602;2023-04-19T11:21:31;65255.22;;;19.02;32.94
41636;BME280;27623;51.966;4.602;2023-04-19T11:24:09;65250.03;;;19.26;33.55
41636;BME280;27623;51.966;4.602;2023-04-19T11:26:35;65272.25;;;19.18;31.72
41636;BME280;27623;51.966;4.602;2023-04-19T11:29:01;65317.06;;;19.47;31.99
41636;BME280;27623;51.966;4.602;2023-04-19T11:31:27;65301.81;;;19.60;31.81
41636;BME280;27623;51.966;4.602;2023-04-19T11:33:52;65334.22;;;19.73;31.05
41636;BME280;27623;51.966;4.602;2023-04-19T11:36:18;65358.44;;;19.88;31.03
41636;BME280;27623;51.966;4.602;2023-04-19T11:38:47;65319.72;;;19.81;31.96
41636;BME280;27623;51.966;4.602;2023-04-19T11:41:13;65407.44;;;20.09;32.02
41636;BME280;27623;51.966;4.602;2023-04-19T11:43:38;65416.09;;;20.32;31.30
41636;BME280;27623;51.966;4.602;2023-04-19T11:46:09;65360.19;;;19.99;30.84
41636;BME280;27623;51.966;4.602;2023-04-19T11:48:36;65422.66;;;20.21;29.68
41636;BME280;27623;51.966;4.602;2023-04-19T11:51:02;65407.03;;;20.11;30.77
41636;BME280;27623;51.966;4.602;2023-04-19T11:53:30;65401.91;;;20.04;31.57
41636;BME280;27623;51.966;4.602;2023-04-19T11:56:07;65419.66;;;20.47;31.82
41636;BME280;27623;51.966;4.602;2023-04-19T11:58:45;65452.81;;;20.63;30.74
41636;BME280;27623;51.966;4.602;2023-04-19T12:01:17;65501.06;;;20.88;30.23
41636;BME280;27623;51.966;4.602;2023-04-19T12:03:48;65512.31;;;20.94;31.17
41636;BME280;27623;51.966;4.602;2023-04-19T12:08:48;65498.66;;;21.08;28.19
41636;BME280;27623;51.966;4.602;2023-04-19T12:11:15;65508.00;;;21.16;29.79
41636;BME280;27623;51.966;4.602;2023-04-19T12:13:40;65544.66;;;21.38;29.33
41636;BME280;27623;51.966;4.602;2023-04-19T12:16:06;65589.72;;;21.53;27.94
41636;BME280;27623;51.966;4.602;2023-04-19T12:18:43;65597.66;;;21.56;28.56
41636;BME280;27623;51.966;4.602;2023-04-19T12:21:10;65589.34;;;21.72;27.56
41636;BME280;27623;51.966;4.602;2023-04-19T12:23:38;65612.00;;;21.86;27.34
41636;BME280;27623;51.966;4.602;2023-04-19T12:26:04;65688.69;;;22.16;26.67
41636;BME280;27623;51.966;4.602;2023-04-19T12:28:29;65628.38;;;21.82;27.41
41636;BME280;27623;51.966;4.602;2023-04-19T12:30:58;65561.16;;;21.37;25.42
41636;BME280;27623;51.966;4.602;2023-04-19T12:33:23;65552.59;;;21.41;25.07
41636;BME280;27623;51.966;4.602;2023-04-19T12:35:48;65570.63;;;21.55;26.65
41636;BME280;27623;51.966;4.602;2023-04-19T12:38:14;65578.41;;;21.72;26.06
41636;BME280;27623;51.966;4.602;2023-04-19T12:40:42;65595.16;;;21.66;25.55
41636;BME280;27623;51.966;4.602;2023-04-19T12:43:10;65637.78;;;21.83;25.18
41636;BME280;27623;51.966;4.602;2023-04-19T12:45:35;65626.72;;;21.97;26.50
41636;BME280;27623;51.966;4.602;2023-04-19T12:48:01;65647.22;;;22.25;26.66
41636;BME280;27623;51.966;4.602;2023-04-19T12:50:26;65653.28;;;22.14;25.52
41636;BME280;27623;51.966;4.602;2023-04-19T12:52:53;65718.53;;;22.53;26.13
41636;BME280;27623;51.966;4.602;2023-04-19T12:55:19;65737.06;;;22.75;25.65
41636;BME280;27623;51.966;4.602;2023-04-19T12:57:44;65710.28;;;22.62;24.53
41636;BME280;27623;51.966;4.602;2023-04-19T13:00:10;65722.47;;;22.66;24.61
41636;BME280;27623;51.966;4.602;2023-04-19T13:02:36;65667.03;;;22.27;24.98
41636;BME280;27623;51.966;4.602;2023-04-19T13:05:02;65773.03;;;22.84;24.67
41636;BME280;27623;51.966;4.602;2023-04-19T13:07:29;65781.53;;;23.04;24.37
41636;BME280;27623;51.966;4.602;2023-04-19T13:09:55;65775.94;;;23.22;24.59
41636;BME280;27623;51.966;4.602;2023-04-19T13:12:23;65801.81;;;23.20;23.23
41636;BME280;27623;51.966;4.602;2023-04-19T13:14:48;65768.16;;;23.06;23.72
41636;BME280;27623;51.966;4.602;2023-04-19T13:17:17;65826.72;;;23.36;23.79
41636;BME280;27623;51.966;4.602;2023-04-19T13:19:48;65845.88;;;23.51;23.58
41636;BME280;27623;51.966;4.602;2023-04-19T13:22:13;65803.13;;;23.33;22.80